Time;durP1;ratioP1;P1;durP2;ratioP2;P2;SDS_P1;SDS_P2;PMS_P1;PMS_P2;Temp;Humidity;BMP_temperature;BMP_pressure;BME280_temperature;BME280_humidity;BME280_pressure;Samples;Min_cycle;Max_cycle;Signal;HPM_P1;HPM_P2
2023/03/27 00:07:48;;;;;;;2.25;0.70;;;;;;;6.81;100.00;99480.97;20772533;28;20153;-73
2023/03/27 00:17:50;;;;;;;1.73;0.80;;;;;;;6.69;100.00;99502.78;20768209;28;20099;-73
2023/03/27 00:27:53;;;;;;;2.08;0.98;;;;;;;6.79;100.00;99523.47;20767173;28;20083;-72
2023/03/27 00:37:54;;;;;;;2.95;1.45;;;;;;;6.86;100.00;99544.19;20764521;28;20429;-73
2023/03/27 00:47:56;;;;;;;4.68;1.90;;;;;;;6.70;100.00;99566.06;20767471;28;20480;-73
2023/03/27 00:57:57;;;;;;;7.90;2.75;;;;;;;6.62;100.00;99580.94;20761470;28;20055;-72
2023/03/27 01:07:58;;;;;;;6.55;2.90;;;;;;;6.41;100.00;99597.66;20753663;28;20049;-71
2023/03/27 01:18:02;;;;;;;8.43;3.63;;;;;;;6.28;100.00;99637.69;20775248;28;20045;-72
2023/03/27 01:28:03;;;;;;;14.23;3.88;;;;;;;6.22;100.00;99650.72;20777202;28;20438;-72
2023/03/27 01:38:04;;;;;;;12.00;3.58;;;;;;;6.16;100.00;99669.84;20785591;28;20057;-72
2023/03/27 01:48:06;;;;;;;12.10;3.13;;;;;;;5.94;100.00;99704.69;20778438;28;20496;-72
2023/03/27 01:58:07;;;;;;;12.60;4.13;;;;;;;5.80;100.00;99726.44;20778855;28;20080;-72
2023/03/27 02:08:09;;;;;;;15.52;3.58;;;;;;;5.70;100.00;99753.34;20771714;28;20144;-72
2023/03/27 02:18:11;;;;;;;15.13;3.13;;;;;;;5.52;100.00;99767.28;20778401;28;20132;-72
2023/03/27 02:28:12;;;;;;;16.05;3.88;;;;;;;5.50;100.00;99778.53;20780073;28;20478;-72
2023/03/27 02:38:13;;;;;;;12.32;2.72;;;;;;;5.38;100.00;99805.44;20775542;28;20045;-71
2023/03/27 02:48:15;;;;;;;13.82;2.50;;;;;;;5.38;100.00;99836.59;20765518;28;20053;-71
2023/03/27 02:58:16;;;;;;;14.75;2.67;;;;;;;5.24;100.00;99857.41;20769983;28;20056;-72
2023/03/27 03:08:20;;;;;;;13.00;2.00;;;;;;;5.18;100.00;99879.91;20778640;28;20124;-72
2023/03/27 03:18:22;;;;;;;10.30;1.77;;;;;;;4.87;100.00;99914.53;20776005;28;20505;-72
2023/03/27 03:28:26;;;;;;;16.30;1.88;;;;;;;4.21;100.00;99973.19;20768957;28;20413;-72
2023/03/27 03:38:28;;;;;;;13.38;2.03;;;;;;;3.99;100.00;99989.56;20766537;28;20053;-72
2023/03/27 03:48:38;;;;;;;16.98;1.98;;;;;;;3.73;100.00;100013.56;20860626;23;20057;-69
2023/03/27 03:58:39;;;;;;;12.35;2.13;;;;;;;3.48;100.00;100047.94;20891726;28;20355;-67
2023/03/27 04:08:40;;;;;;;12.90;2.10;;;;;;;3.25;100.00;100069.31;20891290;28;20922;-67
2023/03/27 04:18:42;;;;;;;9.38;1.88;;;;;;;3.27;100.00;100111.59;20887951;28;20520;-69
2023/03/27 04:28:43;;;;;;;8.48;2.05;;;;;;;3.24;100.00;100137.44;20891756;28;20045;-68
2023/03/27 04:38:46;;;;;;;8.40;1.88;;;;;;;3.38;100.00;100152.22;20889525;28;20459;-68
2023/03/27 04:48:48;;;;;;;8.23;1.55;;;;;;;3.27;100.00;100168.53;20887479;28;20459;-68
2023/03/27 04:58:49;;;;;;;12.65;1.75;;;;;;;3.29;100.00;100205.63;20888348;28;20064;-69
2023/03/27 05:08:51;;;;;;;11.07;1.50;;;;;;;3.15;100.00;100238.22;20874879;28;20049;-68
2023/03/27 05:18:55;;;;;;;17.77;2.53;;;;;;;3.07;100.00;100269.19;20889867;28;20053;-68
2023/03/27 05:28:58;;;;;;;;;;;;;;;3.06;100.00;100300.19;20887379;28;20049;-67
2023/03/27 05:39:00;;;;;;;10.95;1.88;;;;;;;2.94;100.00;100312.97;20886839;28;19921;-68
2023/03/27 05:49:03;;;;;;;13.70;2.42;;;;;;;2.90;100.00;100337.06;20885428;28;20048;-68
2023/03/27 05:59:04;;;;;;;9.73;1.70;;;;;;;2.79;100.00;100366.22;20897962;28;20123;-67
2023/03/27 06:09:08;;;;;;;10.05;2.35;;;;;;;2.81;100.00;100394.66;20899154;28;20053;-67
2023/03/27 06:19:09;;;;;;;8.93;1.67;;;;;;;2.97;100.00;100411.28;20898966;28;20045;-67
2023/03/27 06:29:11;;;;;;;11.98;2.97;;;;;;;3.25;100.00;100430.66;20895578;28;20044;-67
2023/03/27 06:39:12;;;;;;;15.15;1.88;;;;;;;3.47;100.00;100457.75;20895466;28;20072;-69
2023/03/27 06:49:14;;;;;;;12.65;1.85;;;;;;;3.64;100.00;100461.44;20896580;28;20508;-69
2023/03/27 06:59:15;;;;;;;15.30;4.15;;;;;;;3.70;100.00;100487.41;20896102;28;20045;-68
2023/03/27 07:09:16;;;;;;;7.82;1.85;;;;;;;3.68;100.00;100512.38;20895083;28;20639;-68
2023/03/27 07:19:18;;;;;;;10.07;1.88;;;;;;;3.59;100.00;100523.50;20895702;28;20056;-67
2023/03/27 07:29:19;;;;;;;17.30;1.90;;;;;;;3.89;100.00;100545.50;20893203;28;20138;-67
2023/03/27 07:39:21;;;;;;;13.27;2.25;;;;;;;4.00;100.00;100576.72;20889936;28;20130;-67
2023/03/27 07:49:22;;;;;;;11.38;2.15;;;;;;;3.97;100.00;100597.41;20889479;28;20068;-67
2023/03/27 07:59:40;;;;;;;11.38;2.00;;;;;;;4.38;100.00;100601.41;20889073;28;20064;-67
2023/03/27 08:09:41;;;;;;;10.57;1.52;;;;;;;4.51;93.85;100606.78;20889611;28;20060;-67
2023/03/27 08:19:45;;;;;;;9.70;1.65;;;;;;;4.64;78.59;100624.19;20890307;28;20049;-68
2023/03/27 08:29:46;;;;;;;7.05;1.92;;;;;;;5.07;74.57;100629.84;20889123;28;20056;-67
2023/03/27 08:39:48;;;;;;;11.13;1.50;;;;;;;4.84;73.88;100655.59;20888324;28;20053;-67
2023/03/27 08:49:49;;;;;;;11.45;1.85;;;;;;;4.97;74.78;100656.56;20888405;28;20481;-68
2023/03/27 08:59:51;;;;;;;9.75;1.58;;;;;;;5.47;71.23;100658.81;20888441;28;20571;-66
2023/03/27 09:09:54;;;;;;;11.35;1.70;;;;;;;5.43;65.51;100668.31;20887054;28;20045;-67
2023/03/27 09:19:55;;;;;;;6.00;1.35;;;;;;;5.95;68.85;100665.31;20889529;28;20068;-67
2023/03/27 09:29:57;;;;;;;5.57;1.55;;;;;;;6.26;67.28;100677.63;20893128;28;20110;-67
2023/03/27 09:40:12;;;;;;;9.32;1.30;;;;;;;6.39;68.47;100681.19;20900050;28;20049;-68
2023/03/27 09:50:14;;;;;;;14.30;2.03;;;;;;;5.78;66.24;100694.59;20901923;28;20135;-68
2023/03/27 10:00:15;;;;;;;13.13;2.20;;;;;;;6.94;60.88;100687.50;20900611;28;20100;-68
2023/03/27 10:10:18;;;;;;;6.90;1.35;;;;;;;7.09;62.93;100683.22;20900172;28;20052;-68
2023/03/27 10:20:20;;;;;;;9.35;1.50;;;;;;;6.69;63.61;100681.34;20898278;28;20057;-67
2023/03/27 10:30:21;;;;;;;7.60;1.30;;;;;;;7.36;55.10;100687.63;20898311;28;20053;-69
2023/03/27 10:40:22;;;;;;;6.43;1.08;;;;;;;8.12;57.76;100686.81;20897638;28;20187;-67
2023/03/27 10:50:25;;;;;;;7.68;1.20;;;;;;;7.26;58.80;100702.38;20894810;28;20489;-67
2023/03/27 11:00:31;;;;;;;7.57;1.27;;;;;;;7.24;60.60;100722.34;20896045;28;20049;-67
2023/03/27 11:10:32;;;;;;;8.88;1.42;;;;;;;6.45;71.43;100741.06;20895237;28;20416;-66
2023/03/27 12:03:27;;;;;;;2.33;0.80;;;;;;;19.25;67.27;100677.06;20910893;28;69817;-50
2023/03/27 12:35:02;;;;;;;2.70;1.20;;;;;;;19.37;64.91;100750.84;20853853;22;20057;-54
2023/03/27 12:45:03;;;;;;;3.97;1.02;;;;;;;19.47;64.41;100720.25;20772157;28;20049;-47
2023/03/27 12:55:05;;;;;;;4.10;0.70;;;;;;;19.64;63.92;100712.38;20754922;28;20065;-47
2023/03/27 13:05:06;;;;;;;3.97;0.77;;;;;;;19.82;63.33;100707.94;20746644;28;20050;-47
2023/03/27 13:15:24;;;;;;;4.30;0.80;;;;;;;19.86;63.67;100711.31;20706396;28;20048;-47
2023/03/27 13:25:26;;;;;;;2.30;0.60;;;;;;;19.92;63.40;100713.66;20705106;28;20137;-49
2023/03/27 13:35:27;;;;;;;2.50;0.80;;;;;;;20.03;63.00;100700.72;20699257;28;20053;-47
2023/03/27 13:45:28;;;;;;;3.40;0.85;;;;;;;20.03;62.91;100695.41;20695737;28;20499;-52
2023/03/27 13:55:33;;;;;;;4.30;0.70;;;;;;;19.96;64.22;100707.28;20687164;28;20521;-60
2023/03/27 14:05:34;;;;;;;3.80;1.00;;;;;;;19.88;64.71;100733.34;20699183;28;20054;-63
2023/03/27 14:15:36;;;;;;;5.60;1.42;;;;;;;19.92;64.47;100738.44;20696106;28;20047;-62
2023/03/27 14:26:36;;;;;;;2.75;1.00;;;;;;;19.92;64.47;100751.75;20934112;27;20423;-66
2023/03/27 14:36:41;;;;;;;2.97;1.00;;;;;;;20.00;64.10;100746.06;20802918;28;20449;-65
2023/03/27 14:46:43;;;;;;;3.42;0.80;;;;;;;20.10;63.38;100736.69;20814655;28;20136;-64
2023/03/27 14:56:46;;;;;;;3.72;0.90;;;;;;;20.10;63.34;100739.34;20799572;28;20049;-62
2023/03/27 15:06:48;;;;;;;2.88;0.80;;;;;;;20.01;63.94;100769.03;20798443;28;20239;-61
2023/03/27 15:16:51;;;;;;;3.67;1.02;;;;;;;20.03;63.46;100756.56;20799471;28;20045;-61
2023/03/27 15:26:52;;;;;;;4.28;1.00;;;;;;;20.01;63.35;100737.13;20802586;28;20041;-60
2023/03/27 15:36:54;;;;;;;1.73;0.70;;;;;;;19.99;63.27;100744.34;20743189;28;20418;-60
2023/03/27 15:46:56;;;;;;;3.35;0.80;;;;;;;19.97;63.17;100743.53;20735496;28;20050;-63
2023/03/27 15:56:58;;;;;;;2.97;0.73;;;;;;;19.96;63.08;100750.66;20739681;28;20034;-60
2023/03/27 16:07:11;;;;;;;5.47;0.90;;;;;;;19.98;63.02;100756.78;20743605;28;20041;-65
2023/03/27 16:17:19;;;;;;;2.58;0.90;;;;;;;20.00;63.01;100764.66;20743451;28;20034;-62
2023/03/27 16:27:23;;;;;;;2.15;0.82;;;;;;;20.01;62.95;100761.06;20734359;28;20054;-62
2023/03/27 16:37:25;;;;;;;4.28;0.70;;;;;;;20.03;63.80;100769.84;20745304;28;20509;-62
2023/03/27 16:47:26;;;;;;;4.68;1.25;;;;;;;19.93;64.07;100784.47;20738746;28;20041;-58
2023/03/27 16:57:28;;;;;;;2.58;0.80;;;;;;;19.98;63.84;100809.94;20745786;28;20150;-59
2023/03/27 17:07:29;;;;;;;2.88;0.80;;;;;;;20.04;63.90;100806.13;20744861;28;20499;-62
2023/03/27 17:17:30;;;;;;;5.85;0.93;;;;;;;20.08;63.57;100820.97;20737907;28;20050;-58
2023/03/27 17:27:32;;;;;;;3.80;0.70;;;;;;;20.06;63.66;100828.16;20742419;28;20045;-59
2023/03/27 17:37:33;;;;;;;3.97;0.90;;;;;;;20.01;63.92;100843.47;20732372;28;20053;-53
2023/03/27 17:47:35;;;;;;;4.75;0.70;;;;;;;20.01;63.99;100864.72;20736641;28;20104;-56
2023/03/27 17:57:36;;;;;;;3.05;0.70;;;;;;;20.01;63.87;100891.31;20737368;28;20406;-54
2023/03/27 18:07:38;;;;;;;2.42;0.80;;;;;;;19.94;63.87;100911.16;20738206;28;20080;-50
2023/03/27 18:17:40;;;;;;;4.07;0.80;;;;;;;19.92;63.88;100923.63;20730966;28;20490;-55
2023/03/27 18:27:43;;;;;;;2.13;0.73;;;;;;;19.89;63.67;100932.63;20748644;28;20076;-54
2023/03/27 18:37:45;;;;;;;1.33;0.60;;;;;;;19.87;63.79;100944.25;20735129;28;20053;-50
2023/03/27 18:47:46;;;;;;;2.38;0.50;;;;;;;19.87;64.12;100976.13;20740355;28;20537;-62
2023/03/27 18:57:48;;;;;;;1.60;0.50;;;;;;;19.89;63.87;101000.88;20731744;28;20450;-54
2023/03/27 19:07:49;;;;;;;2.03;0.88;;;;;;;19.88;63.81;101015.94;20746129;28;20046;-58
2023/03/27 19:17:51;;;;;;;2.20;0.60;;;;;;;19.89;63.57;101011.50;20745798;28;20535;-61
2023/03/27 19:27:52;;;;;;;3.55;0.70;;;;;;;19.88;63.62;101010.63;20744898;28;20046;-58
2023/03/27 19:37:53;;;;;;;3.50;0.60;;;;;;;19.93;63.45;101011.28;20751411;28;20088;-58
2023/03/27 19:47:55;;;;;;;2.20;0.77;;;;;;;19.91;63.47;101010.47;20741571;28;20045;-62
2023/03/27 19:57:56;;;;;;;3.55;0.90;;;;;;;20.18;72.86;101019.00;20747155;28;20041;-62
